Pineville, WV

6:10 PM EDT on March 28, 2017 (GMT -0400)
Pineville

Weather History for KI16 - January, 2013

Change the Weather History Date:

Wednesday, January 16, 2013

  Actual Average (KBKW) Record (KBKW)
Temperature  
Mean Temperature 43 °F -  
Max Temperature 48 °F 37 °F 69 °F (1932)
Min Temperature 38 °F 18 °F -15 °F (1972)
Degree Days  
Heating Degree Days 22    
Moisture  
Dew Point 41 °F    
Average Humidity 100    
Maximum Humidity 100    
Minimum Humidity 99    
Precipitation  
Precipitation 0.00 in - - ()
Sea Level Pressure  
Sea Level Pressure 30.03 in    
Wind  
Wind Speed - (North)    
Max Wind Speed -    
Max Gust Speed -    
Visibility 7 miles    
Events Rain    
Averages and records for this station are not official NWS values.
T = Trace of Precipitation, MM = Missing Value Source: NWS Daily Summary

Daily Weather History Graph

Daily Weather History Graph

Search for Another Location

Airport or City:

Trip Planner

Search our weather history database for the weather conditions in past years. The results will help you decide how hot, cold, wet, or windy it might be!

Date:

Astronomy

Jan. 16, 2013 Rise Set
Actual Time 7:39 AM EST 5:33 PM EST
Civil Twilight 7:11 AM EST 6:01 PM EST
Nautical Twilight 6:38 AM EST 6:33 PM EST
Astronomical Twilight 6:07 AM EST 7:05 PM EST
Moon 10:22 AM EST (1/16) 11:15 PM EST (1/16)
Length of Visible Light 10h 50m
Length of Day
9h 53m
Waxing Crescent, 28% of the Moon is Illuminated
Jan 16
Waxing Crescent
Jan 18
First Quarter
Jan 26
Full
Feb 3
Last Quarter
Feb 10
New

Hourly Weather History & Observations

Time (EST) Temp. Dew Point Humidity Pressure Visibility Wind Dir Wind Speed Gust Speed Precip Events Conditions
12:15 AM 39.0 °F 39.0 °F 100% 30.03 in 3.0 mi North - - N/A   Overcast
12:35 AM 38.8 °F 38.8 °F 100% 30.03 in 4.0 mi North - - N/A   Overcast
12:55 AM 39.4 °F 39.4 °F 100% 30.03 in 7.0 mi North - - N/A   Overcast
1:15 AM 39.2 °F 39.2 °F 100% 30.01 in 10.0 mi North - - N/A   Overcast
1:55 AM 39.6 °F 39.6 °F 100% 30.00 in 10.0 mi North - - N/A   Overcast
2:15 AM 40.1 °F 40.1 °F 100% 29.98 in 10.0 mi North - - N/A   Overcast
2:35 AM 40.1 °F 40.1 °F 100% 29.98 in 10.0 mi North - - N/A   Overcast
2:55 AM 40.3 °F 40.3 °F 100% 30.00 in 5.0 mi North - - N/A   Overcast
3:15 AM 40.3 °F 40.3 °F 100% 29.98 in 3.0 mi North - - N/A   Overcast
3:35 AM 40.8 °F 40.8 °F 100% 29.98 in 4.0 mi North - - N/A   Overcast
3:55 AM 40.5 °F 40.5 °F 100% 29.98 in 4.0 mi North - - N/A   Overcast
4:15 AM 41.0 °F 41.0 °F 100% 29.98 in 3.0 mi North - - N/A   Overcast
4:35 AM 41.0 °F 41.0 °F 100% 29.98 in 4.0 mi North - - N/A   Overcast
4:55 AM 41.4 °F 41.4 °F 100% 29.98 in 2.5 mi North - - N/A   Overcast
5:15 AM 41.4 °F 41.4 °F 100% 29.96 in 7.0 mi North - - N/A   Overcast
5:35 AM 41.5 °F 41.5 °F 100% 29.97 in 7.0 mi North - - N/A   Overcast
5:55 AM 42.1 °F 42.1 °F 100% 29.97 in 1.2 mi North - - N/A   Unknown
6:15 AM 41.9 °F 41.9 °F 100% 29.99 in 1.8 mi North - - N/A   Overcast
6:35 AM 41.9 °F 41.9 °F 100% 29.98 in 4.0 mi North - - N/A   Overcast
6:55 AM 41.9 °F 41.9 °F 100% 29.98 in 4.0 mi North - - N/A   Overcast
7:15 AM 41.9 °F 41.9 °F 100% 30.00 in 3.0 mi North - - N/A   Unknown
7:35 AM 42.1 °F 42.1 °F 100% 30.04 in 4.0 mi North - - N/A   Overcast
7:55 AM 42.1 °F 42.1 °F 100% 30.04 in 1.8 mi North - - N/A   Unknown
8:15 AM 42.8 °F 42.8 °F 100% 30.05 in 1.0 mi North - - N/A   Overcast
8:35 AM 42.3 °F 42.3 °F 100% 30.05 in 5.0 mi North - - N/A Rain Light Rain
8:55 AM 42.4 °F 42.4 °F 100% 30.05 in 5.0 mi North - - N/A   Overcast
9:15 AM 42.8 °F 42.8 °F 100% 30.04 in 7.0 mi North - - N/A   Overcast
9:35 AM 43.5 °F 43.5 °F 100% 30.03 in 7.0 mi North - - N/A Rain Light Rain
9:55 AM 44.6 °F 44.6 °F 100% 30.01 in 10.0 mi North - - N/A Rain Light Rain
10:15 AM 45.5 °F 45.5 °F 100% 29.98 in 10.0 mi North - - N/A   Overcast
10:55 AM 47.5 °F 47.5 °F 100% 29.94 in 10.0 mi North - - N/A Rain Light Rain
11:15 AM 47.5 °F 47.5 °F 100% 29.96 in 10.0 mi North - - N/A   Overcast
11:35 AM 48.2 °F 48.2 °F 100% 29.95 in 10.0 mi North - - N/A   Overcast
11:55 AM 47.7 °F 47.7 °F 100% 30.00 in 10.0 mi North - - N/A   Overcast
12:15 PM 46.6 °F 46.6 °F 100% 30.01 in 10.0 mi North - - N/A   Overcast
12:35 PM 45.0 °F 45.0 °F 100% 30.01 in 10.0 mi North - - N/A   Overcast
12:55 PM 43.9 °F 43.9 °F 100% 30.00 in 10.0 mi North - - N/A   Light Drizzle
1:15 PM 43.7 °F 43.7 °F 100% 30.02 in 10.0 mi North - - N/A Rain Rain
1:35 PM 43.3 °F 43.3 °F 100% 30.01 in 10.0 mi North - - N/A   Drizzle
1:55 PM 42.3 °F 42.1 °F 99% 30.01 in 10.0 mi North - - N/A   Drizzle
2:15 PM 41.9 °F 41.9 °F 100% 30.00 in 10.0 mi North - - N/A   Overcast
2:55 PM 40.1 °F 40.1 °F 100% 30.02 in 10.0 mi North - - N/A   Overcast
3:15 PM 39.7 °F 39.6 °F 99% 30.03 in 7.0 mi North - - N/A   Overcast
3:35 PM 39.4 °F 39.2 °F 99% 30.06 in 4.0 mi North - - N/A   Overcast
3:55 PM 39.0 °F 38.7 °F 99% 30.06 in 3.0 mi North - - N/A   Overcast
4:35 PM 38.8 °F 38.7 °F 99% 30.08 in 2.0 mi North - - N/A   Overcast
4:55 PM 38.8 °F 38.8 °F 100% 30.09 in 4.0 mi North - - N/A   Overcast
5:15 PM 38.5 °F 38.5 °F 100% 30.09 in 5.0 mi North - - N/A   Overcast
5:55 PM 38.3 °F 38.3 °F 100% 30.10 in 7.0 mi North - - N/A   Overcast
6:35 PM 38.3 °F 38.3 °F 100% 30.10 in 10.0 mi North - - N/A   Overcast
6:55 PM 38.7 °F 38.7 °F 100% 30.10 in 10.0 mi North - - N/A   Overcast
7:15 PM 39.2 °F 38.8 °F 99% 30.10 in 10.0 mi North - - N/A   Overcast
7:35 PM 39.0 °F 38.7 °F 99% 30.10 in 10.0 mi North - - N/A   Overcast
7:55 PM 38.7 °F 38.5 °F 99% 30.09 in 10.0 mi North - - N/A   Overcast
8:15 PM 38.8 °F 38.8 °F 100% 30.09 in 10.0 mi North - - N/A   Overcast
8:35 PM 39.4 °F 39.4 °F 100% 30.11 in 10.0 mi North - - N/A   Overcast
8:55 PM 38.8 °F 38.8 °F 100% 30.10 in 10.0 mi North - - N/A   Overcast
9:15 PM 39.2 °F 39.2 °F 100% 30.09 in 10.0 mi North - - N/A   Overcast
9:35 PM 39.4 °F 39.4 °F 100% 30.08 in 10.0 mi North - - N/A   Overcast
9:55 PM 39.6 °F 39.6 °F 100% 30.08 in 10.0 mi North - - N/A   Overcast
10:15 PM 39.4 °F 39.4 °F 100% 30.10 in 10.0 mi North - - N/A   Overcast
10:35 PM 39.4 °F 39.4 °F 100% 30.09 in 10.0 mi North - - N/A   Overcast
10:55 PM 39.4 °F 39.4 °F 100% 30.09 in 10.0 mi North - - N/A   Overcast
11:15 PM 39.6 °F 39.6 °F 100% 30.10 in 10.0 mi North - - N/A   Overcast
11:35 PM 39.9 °F 39.9 °F 100% 30.09 in 10.0 mi North - - N/A   Overcast
11:55 PM 40.3 °F 40.1 °F 99% 30.09 in 10.0 mi North - - N/A   Overcast